createdAt,value
2024-05-09T00:00:48.042Z,91.29
2024-05-09T00:03:36.158Z,90.38
2024-05-09T00:06:05.167Z,89.98
2024-05-09T00:08:33.682Z,89.78
2024-05-09T00:11:01.991Z,91.27
2024-05-09T00:13:30.205Z,91.70
2024-05-09T00:15:59.500Z,91.96
2024-05-09T00:18:27.749Z,91.78
2024-05-09T00:20:55.865Z,91.10
2024-05-09T00:23:24.884Z,92.53
2024-05-09T00:25:53.044Z,93.23
2024-05-09T00:28:21.306Z,92.81
2024-05-09T00:30:49.351Z,94.15
2024-05-09T00:33:17.714Z,95.02
2024-05-09T00:35:46.118Z,95.59
2024-05-09T00:38:14.209Z,94.58
2024-05-09T00:40:43.633Z,95.08
2024-05-09T00:43:14.092Z,95.35
2024-05-09T00:45:43.922Z,95.03
2024-05-09T00:48:17.535Z,94.71
2024-05-09T00:50:48.444Z,94.68
2024-05-09T00:53:19.216Z,94.56
2024-05-09T00:55:48.156Z,94.83
2024-05-09T00:58:20.760Z,94.46
2024-05-09T01:00:51.694Z,95.74
2024-05-09T01:03:20.372Z,95.57
2024-05-09T01:05:48.811Z,94.85
2024-05-09T01:08:17.781Z,94.66
2024-05-09T01:10:47.990Z,93.90
2024-05-09T01:13:17.168Z,94.50
2024-05-09T01:15:45.251Z,93.63
2024-05-09T01:18:14.343Z,94.53
2024-05-09T01:20:44.734Z,94.81
2024-05-09T01:23:15.769Z,94.32
2024-05-09T01:25:46.535Z,93.99
2024-05-09T01:28:16.306Z,93.76
2024-05-09T01:30:44.627Z,94.02
2024-05-09T01:33:13.409Z,93.01
2024-05-09T01:35:42.786Z,93.70
2024-05-09T01:38:13.764Z,94.46
2024-05-09T01:40:43.902Z,93.20
2024-05-09T01:43:12.369Z,94.12
2024-05-09T01:45:41.215Z,94.08
2024-05-09T01:48:10.733Z,93.73
2024-05-09T01:50:42.263Z,94.54
2024-05-09T01:53:14.400Z,95.41
2024-05-09T01:55:44.031Z,95.05
2024-05-09T01:58:12.173Z,96.22
2024-05-09T02:00:42.542Z,96.43
2024-05-09T02:03:16.237Z,96.64
2024-05-09T02:05:49.620Z,97.49
2024-05-09T02:08:19.546Z,97.34
2024-05-09T02:10:50.344Z,97.76
2024-05-09T02:13:19.009Z,98.86
2024-05-09T02:15:47.099Z,98.54
2024-05-09T02:18:15.363Z,98.29
2024-05-09T02:20:44.137Z,98.06
2024-05-09T02:23:13.695Z,97.55
2024-05-09T02:25:42.024Z,97.42
2024-05-09T02:28:09.957Z,96.72
2024-05-09T02:30:41.098Z,95.78
2024-05-09T02:33:12.453Z,96.36
2024-05-09T02:35:43.660Z,96.42
2024-05-09T02:38:13.221Z,96.59
2024-05-09T02:40:41.561Z,97.25
2024-05-09T02:43:12.721Z,97.53
2024-05-09T02:45:41.625Z,97.73
2024-05-09T02:48:11.528Z,97.00
2024-05-09T02:50:44.746Z,96.38
2024-05-09T02:53:14.563Z,96.15
2024-05-09T02:55:43.348Z,96.03
2024-05-09T02:58:11.983Z,96.30
2024-05-09T03:00:42.144Z,96.07
2024-05-09T03:03:14.562Z,96.26
2024-05-09T03:05:47.084Z,96.03
2024-05-09T03:08:15.444Z,95.69
2024-05-09T03:10:43.804Z,95.70
2024-05-09T03:13:15.453Z,96.26
2024-05-09T03:15:45.492Z,97.13
2024-05-09T03:18:13.999Z,96.53
2024-05-09T03:20:44.089Z,95.76
2024-05-09T03:23:12.934Z,95.94
2024-05-09T03:25:41.300Z,95.56
2024-05-09T03:28:09.475Z,95.33
2024-05-09T03:30:41.952Z,95.55
2024-05-09T03:33:15.628Z,96.10
2024-05-09T03:35:44.432Z,95.97
2024-05-09T03:38:12.613Z,95.32
2024-05-09T03:40:50.882Z,96.71
2024-05-09T03:43:20.305Z,96.84
2024-05-09T03:45:50.759Z,97.65
2024-05-09T03:48:19.138Z,98.68
2024-05-09T03:50:47.690Z,96.89
2024-05-09T03:53:15.878Z,95.40
2024-05-09T03:55:44.108Z,95.57
2024-05-09T03:58:14.543Z,95.58
2024-05-09T04:00:43.261Z,94.93
2024-05-09T04:03:13.056Z,95.23
2024-05-09T04:05:44.026Z,94.93
2024-05-09T04:08:15.555Z,94.84
2024-05-09T04:10:44.258Z,95.60
2024-05-09T04:13:12.551Z,96.08
2024-05-09T04:15:40.618Z,96.46
2024-05-09T04:18:08.767Z,95.70
2024-05-09T04:20:39.857Z,95.71
2024-05-09T04:23:14.388Z,95.20
2024-05-09T04:25:45.147Z,94.64
2024-05-09T04:28:14.259Z,93.79
2024-05-09T04:30:43.299Z,92.99
2024-05-09T04:33:13.594Z,92.88
2024-05-09T04:35:44.045Z,92.36
2024-05-09T04:38:14.612Z,91.52
2024-05-09T04:40:43.514Z,90.35
2024-05-09T04:43:17.106Z,89.77
2024-05-09T04:45:45.522Z,88.62
2024-05-09T04:48:13.679Z,88.01
2024-05-09T04:50:42.255Z,86.67
2024-05-09T04:53:16.387Z,86.65
2024-05-09T04:55:45.470Z,86.17
2024-05-09T04:58:13.548Z,86.08
2024-05-09T05:00:41.986Z,86.18
2024-05-09T05:03:14.261Z,85.98
2024-05-09T05:05:46.320Z,85.77
2024-05-09T05:08:16.746Z,85.56
2024-05-09T05:10:47.089Z,85.87
2024-05-09T05:13:17.633Z,85.28
2024-05-09T05:15:47.547Z,85.25
2024-05-09T05:18:16.249Z,84.96
2024-05-09T05:20:44.880Z,84.84
2024-05-09T05:23:15.410Z,84.41
2024-05-09T05:25:44.510Z,83.64
2024-05-09T05:28:12.666Z,83.95
2024-05-09T05:30:41.419Z,83.93
2024-05-09T05:33:14.712Z,84.65
2024-05-09T05:35:43.566Z,84.39
2024-05-09T05:38:11.771Z,83.78
2024-05-09T05:40:40.845Z,81.71
2024-05-09T05:43:15.917Z,81.16
2024-05-09T05:45:45.505Z,81.23
2024-05-09T05:48:16.471Z,80.41
2024-05-09T05:50:45.123Z,79.31
2024-05-09T05:53:13.505Z,73.24
2024-05-09T05:55:42.109Z,75.66
2024-05-09T05:58:14.965Z,74.26
2024-05-09T06:00:44.143Z,73.21
2024-05-09T06:03:13.784Z,71.92
2024-05-09T06:05:48.374Z,71.17
2024-05-09T06:08:16.479Z,67.70
2024-05-09T06:10:44.703Z,63.45
2024-05-09T06:13:14.105Z,66.54
2024-05-09T06:15:43.431Z,66.78
2024-05-09T06:18:14.875Z,67.07
2024-05-09T06:20:44.171Z,65.81
2024-05-09T06:23:13.347Z,66.61
2024-05-09T06:25:42.685Z,66.55
2024-05-09T06:28:11.455Z,66.45
2024-05-09T06:30:42.491Z,64.75
2024-05-09T06:33:14.385Z,65.02
2024-05-09T06:35:44.941Z,65.11
2024-05-09T06:38:13.590Z,64.12
2024-05-09T06:40:43.812Z,64.52
2024-05-09T06:43:18.515Z,62.46
2024-05-09T06:45:49.389Z,60.46
2024-05-09T06:48:19.751Z,61.11
2024-05-09T06:50:48.705Z,59.89
2024-05-09T06:53:20.527Z,60.96
2024-05-09T06:55:48.835Z,58.61
2024-05-09T06:58:17.009Z,56.43
2024-05-09T07:00:45.159Z,55.92
2024-05-09T07:03:17.134Z,54.93
2024-05-09T07:05:48.723Z,55.28
2024-05-09T07:08:18.351Z,55.28
2024-05-09T07:10:46.790Z,53.55
2024-05-09T07:13:15.918Z,48.27
2024-05-09T07:15:44.275Z,46.95
2024-05-09T07:18:15.899Z,47.91
2024-05-09T07:20:45.986Z,48.25
2024-05-09T07:23:14.610Z,48.17
2024-05-09T07:25:43.317Z,45.75
2024-05-09T07:28:16.210Z,43.69
2024-05-09T07:30:45.571Z,44.28
2024-05-09T07:33:18.377Z,42.83
2024-05-09T07:35:47.309Z,43.80
2024-05-09T07:38:15.469Z,43.92
2024-05-09T07:40:43.561Z,43.30
2024-05-09T07:43:13.029Z,43.18
2024-05-09T07:45:50.649Z,42.11
2024-05-09T07:52:39.189Z,38.56
2024-05-09T07:53:49.215Z,38.63
2024-05-09T07:56:22.584Z,40.21
2024-05-09T07:58:54.161Z,39.64
2024-05-09T08:01:22.623Z,39.95
2024-05-09T08:03:50.907Z,40.71
2024-05-09T08:06:19.115Z,39.25
2024-05-09T08:08:47.633Z,37.83
2024-05-09T08:11:15.715Z,38.08
2024-05-09T08:13:43.818Z,37.63
2024-05-09T08:16:14.094Z,36.62
2024-05-09T08:18:42.877Z,38.02
2024-05-09T08:21:11.021Z,38.63
2024-05-09T08:23:39.094Z,38.81
2024-05-09T08:26:07.457Z,38.75
2024-05-09T08:28:35.370Z,37.75
2024-05-09T08:31:06.659Z,36.55
2024-05-09T08:33:35.384Z,35.29
2024-05-09T08:36:03.815Z,35.51
2024-05-09T08:38:31.827Z,34.99
2024-05-09T08:41:03.535Z,36.11
2024-05-09T08:43:31.619Z,37.30
2024-05-09T08:46:00.394Z,36.16
2024-05-09T08:48:31.320Z,35.32
2024-05-09T08:51:01.137Z,36.45
2024-05-09T08:53:29.152Z,37.21
2024-05-09T08:56:02.457Z,36.81
2024-05-09T08:58:31.855Z,38.46
2024-05-09T09:01:02.541Z,37.60
2024-05-09T09:03:33.789Z,35.98
2024-05-09T09:06:06.847Z,35.54
2024-05-09T09:08:38.898Z,35.69
2024-05-09T09:11:07.371Z,36.52
2024-05-09T09:13:35.344Z,35.32
2024-05-09T09:16:03.898Z,34.97
2024-05-09T09:18:33.155Z,33.91
2024-05-09T09:21:03.303Z,33.28
2024-05-09T09:23:31.400Z,35.01
2024-05-09T09:26:00.391Z,33.87
2024-05-09T09:28:29.605Z,33.92
2024-05-09T09:31:04.533Z,34.52
2024-05-09T09:33:35.900Z,34.16
2024-05-09T09:36:06.947Z,34.14
2024-05-09T09:38:37.880Z,34.18
2024-05-09T09:41:13.181Z,35.06
2024-05-09T09:43:42.804Z,33.60
2024-05-09T09:46:12.943Z,33.91
2024-05-09T09:48:42.719Z,34.49
2024-05-09T09:51:11.509Z,34.88
2024-05-09T09:53:40.093Z,33.83
2024-05-09T09:56:10.541Z,31.28
2024-05-09T09:58:40.236Z,31.79
2024-05-09T10:01:08.489Z,32.07
2024-05-09T10:03:36.924Z,32.45
2024-05-09T10:06:06.998Z,33.71
2024-05-09T10:08:36.370Z,31.85
2024-05-09T10:11:04.746Z,32.05
2024-05-09T10:13:35.070Z,32.90
2024-05-09T10:16:10.912Z,32.25
2024-05-09T10:18:40.731Z,34.06
2024-05-09T10:21:19.504Z,34.67
2024-05-09T10:24:02.677Z,34.22
2024-05-09T10:26:32.940Z,33.60
2024-05-09T10:29:10.841Z,33.47
2024-05-09T10:31:41.669Z,33.85
2024-05-09T10:34:20.726Z,32.86
2024-05-09T10:36:55.570Z,33.47
2024-05-09T10:39:25.401Z,34.45
2024-05-09T10:41:53.358Z,33.57
2024-05-09T10:44:21.705Z,33.21
2024-05-09T10:46:50.734Z,34.42
2024-05-09T10:49:19.165Z,32.22
2024-05-09T10:51:48.705Z,32.50
2024-05-09T10:54:17.406Z,32.81
2024-05-09T10:56:45.538Z,32.55
2024-05-09T10:59:13.613Z,33.34
2024-05-09T11:01:41.829Z,33.34
2024-05-09T11:04:10.234Z,33.30
2024-05-09T11:06:39.194Z,33.26
2024-05-09T11:09:07.800Z,33.57
2024-05-09T11:11:36.077Z,33.19
2024-05-09T11:14:12.584Z,33.82
2024-05-09T11:16:40.655Z,32.97
2024-05-09T11:19:14.728Z,32.49
2024-05-09T11:21:43.235Z,32.73
2024-05-09T11:24:12.261Z,33.13
2024-05-09T11:26:40.311Z,32.45
2024-05-09T11:29:08.416Z,33.52
2024-05-09T11:31:49.110Z,33.45
2024-05-09T11:34:17.363Z,33.17
2024-05-09T11:36:45.660Z,33.34
2024-05-09T11:39:14.825Z,33.12
2024-05-09T11:41:43.100Z,33.19
2024-05-09T11:44:11.562Z,33.05
2024-05-09T11:46:39.717Z,33.46
2024-05-09T11:49:09.662Z,33.23
2024-05-09T11:51:37.977Z,32.88
2024-05-09T11:54:06.080Z,33.68
2024-05-09T11:56:34.366Z,33.63
2024-05-09T11:59:02.841Z,34.46
2024-05-09T12:01:30.978Z,34.25
2024-05-09T12:03:59.449Z,36.07
2024-05-09T12:06:29.525Z,35.55
2024-05-09T12:08:57.999Z,35.28
2024-05-09T12:11:26.108Z,33.47
2024-05-09T12:13:54.257Z,33.05
2024-05-09T12:18:50.677Z,33.24
2024-05-09T12:21:18.863Z,33.47
2024-05-09T12:23:46.929Z,33.28
2024-05-09T12:26:15.974Z,33.54
2024-05-09T12:28:44.199Z,33.16
2024-05-09T12:31:12.313Z,33.27
2024-05-09T12:33:40.326Z,34.27
2024-05-09T12:36:08.511Z,33.75
2024-05-09T12:38:36.496Z,34.64
2024-05-09T12:41:05.091Z,32.97
2024-05-09T12:43:33.245Z,33.33
2024-05-09T12:46:03.520Z,32.34
2024-05-09T12:48:31.816Z,32.82
2024-05-09T12:51:00.114Z,33.15
2024-05-09T12:53:28.396Z,32.94
2024-05-09T12:56:00.098Z,32.64
2024-05-09T12:58:31.126Z,32.45
2024-05-09T13:00:59.384Z,32.65
2024-05-09T13:03:27.712Z,33.84
2024-05-09T13:05:56.117Z,33.22
2024-05-09T13:08:24.495Z,33.19
2024-05-09T13:10:52.557Z,33.35
2024-05-09T13:13:20.979Z,33.03
2024-05-09T13:15:49.329Z,33.30
2024-05-09T13:18:17.953Z,32.70
2024-05-09T13:20:46.082Z,32.31
2024-05-09T13:23:14.160Z,32.80
2024-05-09T13:25:42.438Z,32.46
2024-05-09T13:28:10.774Z,32.80
2024-05-09T13:30:41.705Z,32.39
2024-05-09T13:33:12.310Z,33.31
2024-05-09T13:35:48.697Z,32.99
2024-05-09T13:38:20.632Z,33.85
2024-05-09T13:40:49.981Z,34.07
2024-05-09T13:43:19.261Z,34.38
2024-05-09T13:45:47.778Z,34.30
2024-05-09T13:48:16.108Z,33.33
2024-05-09T13:50:44.367Z,33.26
2024-05-09T13:53:12.324Z,33.31
2024-05-09T13:55:40.674Z,33.91
2024-05-09T13:58:09.622Z,33.07
2024-05-09T14:00:46.146Z,33.70
2024-05-09T14:03:20.015Z,33.87
2024-05-09T14:05:51.130Z,33.91
2024-05-09T14:08:22.237Z,33.96
2024-05-09T14:10:51.360Z,34.03
2024-05-09T14:13:20.121Z,34.61
2024-05-09T14:15:48.704Z,33.91
2024-05-09T14:18:17.410Z,34.91
2024-05-09T14:20:45.559Z,34.40
2024-05-09T14:23:14.908Z,34.12
2024-05-09T14:25:44.599Z,33.70
2024-05-09T14:28:13.798Z,34.49
2024-05-09T14:30:42.648Z,34.80
2024-05-09T14:33:11.408Z,34.28
2024-05-09T14:35:39.837Z,35.11
2024-05-09T14:38:09.235Z,34.80
2024-05-09T14:40:42.316Z,34.56
2024-05-09T14:43:14.119Z,34.44
2024-05-09T14:45:43.873Z,35.36
2024-05-09T14:48:14.793Z,34.60
2024-05-09T14:50:43.317Z,34.57
2024-05-09T14:53:13.168Z,34.43
2024-05-09T14:55:43.384Z,34.40
2024-05-09T14:58:13.479Z,34.62
2024-05-09T15:00:46.487Z,34.30
2024-05-09T15:03:19.943Z,34.83
2024-05-09T15:05:49.155Z,35.09
2024-05-09T15:08:19.064Z,35.87
2024-05-09T15:10:49.892Z,36.95
2024-05-09T15:13:19.774Z,35.33
2024-05-09T15:15:48.571Z,35.39
2024-05-09T15:18:17.435Z,35.65
2024-05-09T15:20:45.842Z,35.83
2024-05-09T15:23:14.132Z,35.82
2024-05-09T15:25:44.355Z,36.73
2024-05-09T15:28:12.649Z,35.93
2024-05-09T15:30:44.126Z,35.35
2024-05-09T15:33:15.295Z,35.13
2024-05-09T15:35:44.942Z,36.11
2024-05-09T15:38:14.503Z,36.01
2024-05-09T15:40:42.574Z,35.79
2024-05-09T15:43:11.669Z,35.75
2024-05-09T15:45:41.358Z,35.91
2024-05-09T15:48:10.880Z,37.77
2024-05-09T15:50:41.727Z,37.89
2024-05-09T15:53:13.386Z,37.73
2024-05-09T15:55:43.295Z,38.19
2024-05-09T15:58:12.684Z,36.76
2024-05-09T16:00:44.776Z,37.47
2024-05-09T16:03:15.175Z,37.97
2024-05-09T16:05:45.714Z,39.39
2024-05-09T16:08:15.276Z,41.37
2024-05-09T16:10:46.058Z,40.51
2024-05-09T16:13:16.622Z,40.35
2024-05-09T16:15:46.386Z,40.38
2024-05-09T16:18:15.110Z,39.98
2024-05-09T16:23:11.383Z,40.15
2024-05-09T16:25:43.021Z,40.37
2024-05-09T16:28:11.852Z,40.43
2024-05-09T16:30:40.286Z,39.76
2024-05-09T16:33:09.507Z,40.48
2024-05-09T16:35:39.443Z,40.81
2024-05-09T16:38:07.872Z,41.28
2024-05-09T16:40:40.067Z,42.41
2024-05-09T16:43:12.336Z,43.33
2024-05-09T16:45:45.032Z,44.40
2024-05-09T16:48:14.264Z,45.06
2024-05-09T16:50:43.398Z,45.42
2024-05-09T16:53:13.516Z,47.90
2024-05-09T16:55:41.466Z,49.85
2024-05-09T16:58:11.967Z,51.58
2024-05-09T17:00:43.219Z,49.91
2024-05-09T17:03:15.140Z,49.68
2024-05-09T17:05:48.490Z,49.54
2024-05-09T17:08:20.871Z,50.29
2024-05-09T17:10:49.670Z,51.70
2024-05-09T17:13:18.902Z,52.05
2024-05-09T17:15:48.080Z,52.94
2024-05-09T17:18:16.728Z,53.52
2024-05-09T17:20:44.916Z,53.38
2024-05-09T17:23:14.096Z,55.11
2024-05-09T17:25:43.271Z,54.17
2024-05-09T17:28:12.235Z,54.83
2024-05-09T17:30:42.188Z,55.42
2024-05-09T17:33:13.346Z,56.25
2024-05-09T17:35:42.089Z,57.76
2024-05-09T17:38:10.325Z,57.33
2024-05-09T17:40:39.304Z,58.16
2024-05-09T17:43:10.641Z,58.44
2024-05-09T17:45:41.052Z,59.88
2024-05-09T17:48:11.473Z,60.72
2024-05-09T17:50:41.685Z,60.49
2024-05-09T17:53:10.932Z,60.09
2024-05-09T17:55:40.424Z,60.73
2024-05-09T17:58:09.789Z,60.82
2024-05-09T18:00:41.209Z,62.49
2024-05-09T18:03:11.946Z,62.33
2024-05-09T18:05:43.973Z,62.38
2024-05-09T18:08:13.467Z,62.99
2024-05-09T18:10:42.491Z,62.01
2024-05-09T18:13:12.289Z,64.27
2024-05-09T18:15:40.910Z,64.95
2024-05-09T18:18:10.724Z,64.59
2024-05-09T18:20:44.026Z,65.10
2024-05-09T18:23:16.813Z,65.27
2024-05-09T18:25:47.797Z,63.68
2024-05-09T18:28:17.166Z,63.97
2024-05-09T18:30:46.087Z,64.82
2024-05-09T18:33:14.863Z,66.86
2024-05-09T18:35:44.306Z,66.49
2024-05-09T18:38:12.879Z,68.83
2024-05-09T18:40:42.970Z,68.09
2024-05-09T18:43:13.356Z,67.50
2024-05-09T18:45:41.463Z,69.10
2024-05-09T18:48:10.259Z,71.08
2024-05-09T18:50:40.827Z,70.77
2024-05-09T18:53:12.069Z,70.44
2024-05-09T18:55:44.641Z,70.26
2024-05-09T18:58:12.844Z,71.22
2024-05-09T19:00:44.026Z,72.68
2024-05-09T19:03:14.928Z,70.28
2024-05-09T19:05:45.907Z,71.39
2024-05-09T19:08:15.457Z,72.78
2024-05-09T19:10:46.020Z,71.99
2024-05-09T19:13:15.077Z,73.20
2024-05-09T19:15:44.430Z,75.04
2024-05-09T19:18:14.386Z,74.43
2024-05-09T19:20:43.823Z,74.24
2024-05-09T19:23:12.508Z,75.55
2024-05-09T19:25:40.667Z,76.42
2024-05-09T19:28:08.980Z,76.22
2024-05-09T19:30:41.019Z,75.88
2024-05-09T19:33:13.214Z,75.67
2024-05-09T19:35:43.660Z,77.06
2024-05-09T19:38:12.790Z,77.42
2024-05-09T19:40:41.329Z,76.21
2024-05-09T19:43:09.804Z,76.77
2024-05-09T19:45:38.468Z,78.27
2024-05-09T19:48:07.444Z,78.97
2024-05-09T19:50:41.871Z,80.36
2024-05-09T19:53:14.618Z,81.04
2024-05-09T19:55:43.264Z,78.40
2024-05-09T19:58:12.704Z,79.99
2024-05-09T20:00:43.420Z,80.16
2024-05-09T20:03:14.970Z,80.69
2024-05-09T20:05:46.583Z,78.66
2024-05-09T20:08:16.772Z,78.53
2024-05-09T20:10:44.968Z,79.06
2024-05-09T20:13:13.771Z,78.26
2024-05-09T20:15:42.377Z,77.99
2024-05-09T20:18:10.957Z,78.35
2024-05-09T20:20:42.501Z,79.29
2024-05-09T20:23:12.975Z,82.66
2024-05-09T20:25:41.864Z,79.93
2024-05-09T20:28:10.866Z,80.98
2024-05-09T20:30:39.575Z,82.87
2024-05-09T20:33:09.001Z,82.66
2024-05-09T20:35:38.146Z,81.78
2024-05-09T20:38:06.424Z,80.35
2024-05-09T20:40:37.774Z,79.76
2024-05-09T20:43:09.957Z,78.18
2024-05-09T20:45:38.901Z,82.74
2024-05-09T20:48:08.669Z,81.31
2024-05-09T20:50:40.604Z,79.52
2024-05-09T20:53:12.916Z,80.49
2024-05-09T20:55:43.014Z,79.33
2024-05-09T20:58:11.884Z,82.12
2024-05-09T21:00:43.615Z,80.81
2024-05-09T21:03:18.196Z,79.61
2024-05-09T21:05:48.537Z,82.28
2024-05-09T21:08:17.264Z,80.51
2024-05-09T21:10:45.464Z,82.23
2024-05-09T21:13:13.851Z,82.77
2024-05-09T21:15:42.028Z,82.38
2024-05-09T21:18:10.439Z,81.72
2024-05-09T21:20:38.627Z,80.99
2024-05-09T21:23:06.516Z,81.59
2024-05-09T21:25:34.841Z,82.26
2024-05-09T21:28:03.022Z,81.49
2024-05-09T21:30:38.865Z,81.87
2024-05-09T21:33:13.724Z,82.44
2024-05-09T21:35:44.277Z,82.88
2024-05-09T21:38:14.626Z,83.80
2024-05-09T21:40:44.136Z,82.24
2024-05-09T21:43:12.584Z,82.74
2024-05-09T21:45:40.617Z,82.74
2024-05-09T21:48:09.477Z,82.24
2024-05-09T21:50:41.068Z,83.48
2024-05-09T21:53:11.915Z,86.06
2024-05-09T21:55:43.885Z,85.83
2024-05-09T21:58:13.512Z,84.52
2024-05-09T22:00:45.293Z,83.81
2024-05-09T22:03:14.293Z,84.34
2024-05-09T22:05:44.765Z,82.65
2024-05-09T22:08:13.458Z,81.85
2024-05-09T22:10:41.666Z,81.64
2024-05-09T22:13:09.867Z,85.77
2024-05-09T22:15:40.383Z,84.44
2024-05-09T22:18:10.847Z,83.01
2024-05-09T22:20:45.116Z,84.66
2024-05-09T22:23:15.509Z,85.39
2024-05-09T22:25:44.028Z,84.67
2024-05-09T22:28:15.389Z,83.43
2024-05-09T22:30:45.976Z,84.21
2024-05-09T22:33:15.266Z,85.99
2024-05-09T22:35:43.532Z,86.09
2024-05-09T22:38:11.825Z,86.01
2024-05-09T22:40:47.275Z,85.14
2024-05-09T22:43:23.139Z,85.09
2024-05-09T22:45:56.921Z,85.90
2024-05-09T22:48:25.813Z,86.93
2024-05-09T22:50:54.750Z,85.77
2024-05-09T22:53:24.804Z,85.50
2024-05-09T22:55:53.714Z,85.75
2024-05-09T22:58:23.584Z,87.76
2024-05-09T23:00:52.442Z,87.82
2024-05-09T23:03:21.915Z,87.30
2024-05-09T23:05:52.128Z,87.25
2024-05-09T23:08:20.100Z,88.60
2024-05-09T23:10:48.118Z,88.19
2024-05-09T23:13:16.307Z,87.73
2024-05-09T23:15:44.462Z,87.19
2024-05-09T23:18:12.837Z,88.23
2024-05-09T23:20:41.065Z,88.34
2024-05-09T23:23:10.685Z,88.94
2024-05-09T23:25:43.832Z,89.14
2024-05-09T23:28:12.690Z,87.61
2024-05-09T23:30:41.952Z,86.78
2024-05-09T23:33:12.650Z,87.12
2024-05-09T23:35:42.445Z,87.02
2024-05-09T23:38:10.783Z,87.39
2024-05-09T23:40:41.109Z,87.67
2024-05-09T23:43:11.841Z,86.92
2024-05-09T23:45:41.442Z,87.10
2024-05-09T23:48:11.072Z,87.15
2024-05-09T23:50:40.723Z,86.81
2024-05-09T23:53:10.402Z,88.80
2024-05-09T23:55:39.412Z,88.09
2024-05-09T23:58:09.281Z,88.98
